»·PEaware :: MTN721 KMYF-KHND

MTN721 :: KMYF-KHND

FLIGHT INFORMATION

Flight Status: Arrived
Operator:
Mountain Air Cargo
More flights by this operator :: More flights under this callsign
Pilot: Walter H. (552)
Aircraft: Unknown
(DHC8)
More flights by this aircraft type
Origin: KMYF Montgomery
United States
Destination: KHND Henderson
United States
More flights between these airports :: More routes between these airports
Route: +JLI V514 GFS BLD
File this flight plan on PilotEdge
Remarks:
Altitude:
(Current/Filed)
4,000ft
Speed:
(Current/Filed)
0kts
Departed: 19-Jul-18 12:52 PM
Arrived: 19-Jul-18 01:49 PM
Distance/Time
Traveled:
214nm/0:56
Distance/Time
To Go:
Arrived

Flight Plot

Page will automatically refresh every two minutes.

Flight plan parsing failed; only flown route is shown


Map Options




Map Legend


Flown Route
Filed Route
Departure Airport
Arrival Airport
Navaid (VOR, NDB)
Fix

Horizontal Profiles

Position Reports

Time Latitude Longitude Heading Altitude Ground
Speed
19-Jul-18 12:28 32.813088 -117.142016 270 434ft 0kts
19-Jul-18 12:29 32.813088 -117.142016 270 434ft 0kts
19-Jul-18 12:30 32.813088 -117.142016 270 434ft 0kts
19-Jul-18 12:31 32.813088 -117.142016 270 434ft 0kts
19-Jul-18 12:32 32.813088 -117.142016 270 434ft 0kts
19-Jul-18 12:33 32.813088 -117.142016 270 434ft 0kts
19-Jul-18 12:34 32.813088 -117.142016 270 434ft 0kts
19-Jul-18 12:35 32.813088 -117.142016 270 434ft 0kts
19-Jul-18 12:36 32.813088 -117.142016 270 434ft 0kts
19-Jul-18 12:37 32.813088 -117.142016 270 434ft 0kts
19-Jul-18 12:38 32.813088 -117.142016 270 434ft 0kts
19-Jul-18 12:39 32.813088 -117.142016 270 434ft 0kts
19-Jul-18 12:40 32.813059 -117.141528 276 434ft 0kts
19-Jul-18 12:41 32.813059 -117.141528 276 434ft 0kts
19-Jul-18 12:42 32.813059 -117.141528 276 434ft 0kts
19-Jul-18 12:43 32.813481 -117.141392 24 434ft 0kts
19-Jul-18 12:44 32.813481 -117.141392 24 434ft 0kts
19-Jul-18 12:45 32.813481 -117.141392 24 434ft 0kts
19-Jul-18 12:46 32.813727 -117.141243 28 434ft 9kts
19-Jul-18 12:47 32.812285 -117.135489 115 434ft 19kts
19-Jul-18 12:48 32.811182 -117.132901 99 434ft 8kts
19-Jul-18 12:49 32.811890 -117.131571 33 434ft 0kts
19-Jul-18 12:50 32.811911 -117.131555 32 434ft 0kts
19-Jul-18 12:51 32.811911 -117.131555 32 434ft 0kts
19-Jul-18 12:52 32.812151 -117.131392 27 434ft 7kts
19-Jul-18 12:53 32.819533 -117.148216 295 533ft 146kts
19-Jul-18 12:54 32.834149 -117.204822 283 2799ft 195kts
19-Jul-18 12:55 32.845890 -117.270084 282 3052ft 201kts
19-Jul-18 12:56 32.875342 -117.320201 0 3444ft 211kts
19-Jul-18 12:57 32.933363 -117.308896 11 5658ft 214kts
19-Jul-18 12:58 32.994696 -117.295561 11 6042ft 230kts
19-Jul-18 12:59 33.028186 -117.239331 79 7381ft 223kts
19-Jul-18 13:00 33.040975 -117.166785 79 9350ft 224kts
19-Jul-18 13:01 33.053652 -117.094306 79 11120ft 222kts
19-Jul-18 13:02 33.066216 -117.022022 80 12724ft 222kts
19-Jul-18 13:03 33.079610 -116.943418 80 13021ft 264kts
19-Jul-18 13:04 33.095062 -116.852671 80 13027ft 291kts
19-Jul-18 13:05 33.111539 -116.756189 80 13024ft 303kts
19-Jul-18 13:06 33.128372 -116.657211 80 13023ft 306kts
19-Jul-18 13:07 33.164379 -116.567814 45 13518ft 304kts
19-Jul-18 13:08 33.229185 -116.508343 39 14491ft 287kts
19-Jul-18 13:09 33.294315 -116.452210 39 15042ft 290kts
19-Jul-18 13:10 33.359852 -116.395096 39 15611ft 293kts
19-Jul-18 13:11 33.425725 -116.337470 39 16054ft 295kts
19-Jul-18 13:12 33.492008 -116.279550 39 16565ft 297kts
19-Jul-18 13:13 33.555832 -116.223663 39 17969ft 269kts
19-Jul-18 13:14 33.615901 -116.170838 39 18881ft 271kts
19-Jul-18 13:15 33.678755 -116.118888 36 19632ft 276kts
19-Jul-18 13:16 33.743278 -116.067866 36 20262ft 280kts
19-Jul-18 13:17 33.808330 -116.015606 36 20891ft 283kts
19-Jul-18 13:18 33.874212 -115.962525 37 21474ft 286kts
19-Jul-18 13:19 33.940693 -115.908820 37 21971ft 289kts
19-Jul-18 13:20 34.007876 -115.854450 37 22435ft 293kts
19-Jul-18 13:21 34.075693 -115.799546 37 22862ft 295kts
19-Jul-18 13:22 34.141195 -115.738733 47 23059ft 302kts
19-Jul-18 13:23 34.202758 -115.667982 45 23066ft 311kts
19-Jul-18 13:24 34.266996 -115.595873 45 23058ft 319kts
19-Jul-18 13:25 34.334750 -115.525718 30 23059ft 327kts
19-Jul-18 13:26 34.421361 -115.488369 22 23053ft 332kts
19-Jul-18 13:27 34.508195 -115.450205 22 23045ft 333kts
19-Jul-18 13:28 34.595422 -115.412097 22 23036ft 334kts
19-Jul-18 13:29 34.682783 -115.373920 22 23028ft 334kts
19-Jul-18 13:30 34.769953 -115.335722 22 23020ft 334kts
19-Jul-18 13:31 34.857022 -115.297433 22 23007ft 332kts
19-Jul-18 13:32 34.943887 -115.259241 22 22999ft 333kts
19-Jul-18 13:33 35.015868 -115.227482 22 22998ft 330kts
19-Jul-18 13:34 35.116616 -115.182860 22 22986ft 331kts
19-Jul-18 13:35 35.204456 -115.149022 18 22995ft 333kts
19-Jul-18 13:36 35.293408 -115.118323 19 23002ft 332kts
19-Jul-18 13:37 35.367623 -115.091496 19 22345ft 341kts
19-Jul-18 13:38 35.458372 -115.058840 19 20549ft 337kts
19-Jul-18 13:39 35.560834 -115.021790 19 18360ft 324kts
19-Jul-18 13:40 35.631721 -114.996217 19 16653ft 315kts
19-Jul-18 13:41 35.714061 -114.966192 19 14503ft 307kts
19-Jul-18 13:42 35.794318 -114.936978 19 12341ft 299kts
19-Jul-18 13:43 35.867896 -114.960492 299 10080ft 304kts
19-Jul-18 13:44 35.888612 -115.053779 282 8536ft 258kts
19-Jul-18 13:45 35.904349 -115.130604 282 6914ft 224kts
19-Jul-18 13:46 35.940716 -115.181452 356 5082ft 191kts
19-Jul-18 13:47 35.989792 -115.178307 6 4587ft 176kts
19-Jul-18 13:48 36.015237 -115.145886 102 3783ft 144kts
19-Jul-18 13:49 35.982021 -115.135399 178 2543ft 123kts
19-Jul-18 13:50 35.967303 -115.136094 269 2499ft 8kts
19-Jul-18 13:51 35.967301 -115.136340 269 2499ft 0kts
19-Jul-18 13:52 35.971153 -115.136549 1 2499ft 18kts
19-Jul-18 13:53 35.974493 -115.137095 269 2499ft 12kts
19-Jul-18 13:54 35.973750 -115.137783 96 2499ft 0kts

Navigation Log

Ident Type
Flight plan parsing failed, navigation log unavailable